createdAt,value
2019-03-02T00:02:14.894Z,1.00
2019-03-02T00:04:46.215Z,0.60
2019-03-02T00:07:17.349Z,1.00
2019-03-02T00:09:48.944Z,0.70
2019-03-02T00:12:19.458Z,0.70
2019-03-02T00:14:50.720Z,0.87
2019-03-02T00:17:21.673Z,1.07
2019-03-02T00:19:51.990Z,0.87
2019-03-02T00:22:22.321Z,0.80
2019-03-02T00:24:53.979Z,0.60
2019-03-02T00:27:24.441Z,0.83
2019-03-02T00:29:54.805Z,1.73
2019-03-02T00:32:25.261Z,1.00
2019-03-02T00:34:55.665Z,0.83
2019-03-02T00:37:25.873Z,1.13
2019-03-02T00:39:56.247Z,0.90
2019-03-02T00:42:26.543Z,0.90
2019-03-02T00:44:56.757Z,0.90
2019-03-02T00:47:26.969Z,0.80
2019-03-02T00:50:00.757Z,0.73
2019-03-02T00:52:29.236Z,0.77
2019-03-02T00:54:59.522Z,0.90
2019-03-02T00:57:29.883Z,0.93
2019-03-02T01:00:00.248Z,0.83
2019-03-02T01:02:30.664Z,0.80
2019-03-02T01:05:01.593Z,0.97
2019-03-02T01:07:32.985Z,0.70
2019-03-02T01:10:04.304Z,0.80
2019-03-02T01:12:34.833Z,1.00
2019-03-02T01:15:08.464Z,0.83
2019-03-02T01:17:39.673Z,1.00
2019-03-02T01:20:11.913Z,0.90
2019-03-02T01:22:42.548Z,0.83
2019-03-02T01:25:14.857Z,0.83
2019-03-02T01:27:45.306Z,0.80
2019-03-02T01:30:17.627Z,0.90
2019-03-02T01:32:48.810Z,0.70
2019-03-02T01:35:21.670Z,0.77
2019-03-02T01:37:52.129Z,0.73
2019-03-02T01:40:22.494Z,1.00
2019-03-02T01:42:52.802Z,0.70
2019-03-02T01:45:24.027Z,0.50
2019-03-02T01:47:55.133Z,1.00
2019-03-02T01:50:25.599Z,0.97
2019-03-02T01:52:56.119Z,1.17
2019-03-02T01:55:27.881Z,1.37
2019-03-02T01:57:58.786Z,0.70
2019-03-02T02:00:30.841Z,1.00
2019-03-02T02:03:01.065Z,0.63
2019-03-02T02:05:32.048Z,0.63
2019-03-02T02:08:03.371Z,0.73
2019-03-02T02:10:33.792Z,0.80
2019-03-02T02:13:06.221Z,0.60
2019-03-02T02:15:36.675Z,0.60
2019-03-02T02:18:07.097Z,0.60
2019-03-02T02:20:37.549Z,1.03
2019-03-02T02:23:09.931Z,0.80
2019-03-02T02:25:39.881Z,0.70
2019-03-02T02:28:10.173Z,0.70
2019-03-02T02:30:40.641Z,0.70
2019-03-02T02:33:11.053Z,0.60
2019-03-02T02:35:41.750Z,0.90
2019-03-02T02:38:16.157Z,0.60
2019-03-02T02:40:44.093Z,0.60
2019-03-02T02:43:20.508Z,0.60
2019-03-02T02:45:48.935Z,0.90
2019-03-02T02:48:18.343Z,0.60
2019-03-02T02:50:48.698Z,0.67
2019-03-02T02:53:19.052Z,0.70
2019-03-02T02:55:49.333Z,0.63
2019-03-02T02:58:19.679Z,0.60
2019-03-02T03:00:54.964Z,0.70
2019-03-02T03:03:22.683Z,0.67
2019-03-02T03:05:54.135Z,0.60
2019-03-02T03:08:39.337Z,0.70
2019-03-02T03:11:09.688Z,0.83
2019-03-02T03:13:41.831Z,0.47
2019-03-02T03:16:16.484Z,0.80
2019-03-02T03:18:47.052Z,0.60
2019-03-02T03:21:16.929Z,0.50
2019-03-02T03:23:47.504Z,0.60
2019-03-02T03:26:17.893Z,0.77
2019-03-02T03:28:48.283Z,0.80
2019-03-02T03:31:23.417Z,0.60
2019-03-02T03:33:50.729Z,0.50
2019-03-02T03:36:21.192Z,0.50
2019-03-02T03:38:51.555Z,0.70
2019-03-02T03:41:21.925Z,0.70
2019-03-02T03:43:52.196Z,0.60
2019-03-02T03:46:23.797Z,1.00
2019-03-02T03:48:56.265Z,0.50
2019-03-02T03:51:30.496Z,0.60
2019-03-02T03:54:01.693Z,0.60
2019-03-02T03:56:30.526Z,0.50
2019-03-02T03:59:00.921Z,0.43
2019-03-02T04:01:31.397Z,0.60
2019-03-02T04:04:03.458Z,0.60
2019-03-02T04:06:34.626Z,0.60
2019-03-02T04:09:08.297Z,0.70
2019-03-02T04:11:42.079Z,1.10
2019-03-02T04:14:10.552Z,0.90
2019-03-02T04:16:40.954Z,0.53
2019-03-02T04:19:16.915Z,0.60
2019-03-02T04:21:47.129Z,0.60
2019-03-02T04:24:17.478Z,0.70
2019-03-02T04:26:47.881Z,0.50
2019-03-02T04:29:18.275Z,0.80
2019-03-02T04:31:50.485Z,0.53
2019-03-02T04:34:22.717Z,0.70
2019-03-02T04:36:52.665Z,0.60
2019-03-02T04:39:22.966Z,0.60
2019-03-02T04:41:53.401Z,0.60
2019-03-02T04:44:25.722Z,0.50
2019-03-02T04:46:55.864Z,0.50
2019-03-02T04:49:26.101Z,0.50
2019-03-02T04:51:56.391Z,0.60
2019-03-02T04:54:26.949Z,0.67
2019-03-02T04:56:58.903Z,0.63
2019-03-02T04:59:29.215Z,0.70
2019-03-02T05:01:59.741Z,0.60
2019-03-02T05:04:32.313Z,0.90
2019-03-02T05:07:01.877Z,0.80
2019-03-02T05:09:32.328Z,0.60
2019-03-02T05:12:02.728Z,0.70
2019-03-02T05:14:33.024Z,0.70
2019-03-02T05:17:07.190Z,0.70
2019-03-02T05:19:35.537Z,0.53
2019-03-02T05:22:06.397Z,0.50
2019-03-02T05:24:36.859Z,0.70
2019-03-02T05:27:07.317Z,0.33
2019-03-02T05:29:37.734Z,1.00
2019-03-02T05:32:08.202Z,0.60
2019-03-02T05:34:39.739Z,1.10
2019-03-02T05:37:10.304Z,0.70
2019-03-02T05:39:40.737Z,0.80
2019-03-02T05:42:13.642Z,1.10
2019-03-02T05:44:43.294Z,0.90
2019-03-02T05:47:13.993Z,0.60
2019-03-02T05:49:44.624Z,0.70
2019-03-02T05:52:17.768Z,0.60
2019-03-02T05:54:47.797Z,0.60
2019-03-02T05:57:18.491Z,0.60
2019-03-02T05:59:49.119Z,0.77
2019-03-02T06:02:19.883Z,0.70
2019-03-02T06:04:53.579Z,0.50
2019-03-02T06:07:22.627Z,0.80
2019-03-02T06:09:53.276Z,0.60
2019-03-02T06:12:24.026Z,0.70
2019-03-02T06:14:54.578Z,0.80
2019-03-02T06:17:25.073Z,0.70
2019-03-02T06:19:55.739Z,0.63
2019-03-02T06:22:27.747Z,0.70
2019-03-02T06:24:58.459Z,0.67
2019-03-02T06:27:28.873Z,0.73
2019-03-02T06:29:59.436Z,0.60
2019-03-02T06:32:32.538Z,0.80
2019-03-02T06:35:01.971Z,0.50
2019-03-02T06:37:32.921Z,0.70
2019-03-02T06:40:05.054Z,0.73
2019-03-02T06:42:35.522Z,1.10
2019-03-02T06:45:11.299Z,0.73
2019-03-02T06:47:42.118Z,0.70
2019-03-02T06:50:14.891Z,0.87
2019-03-02T06:52:45.494Z,2.43
2019-03-02T06:55:16.901Z,1.00
2019-03-02T06:57:49.819Z,0.83
2019-03-02T07:00:20.780Z,0.90
2019-03-02T07:02:51.426Z,0.87
2019-03-02T07:05:21.770Z,0.70
2019-03-02T07:07:53.616Z,0.80
2019-03-02T07:10:24.271Z,1.03
2019-03-02T07:12:56.236Z,0.67
2019-03-02T07:15:26.706Z,1.80
2019-03-02T07:18:05.751Z,1.63
2019-03-02T07:20:43.947Z,2.10
2019-03-02T07:23:14.448Z,1.57
2019-03-02T07:25:45.107Z,0.83
2019-03-02T07:28:15.821Z,0.90
2019-03-02T07:30:46.298Z,1.00
2019-03-02T07:33:16.713Z,0.63
2019-03-02T07:35:47.136Z,0.60
2019-03-02T07:38:20.278Z,0.73
2019-03-02T07:40:50.236Z,0.60
2019-03-02T07:43:20.807Z,0.70
2019-03-02T07:45:51.425Z,0.60
2019-03-02T07:48:22.044Z,0.70
2019-03-02T07:50:52.335Z,0.70
2019-03-02T07:53:25.125Z,0.63
2019-03-02T07:55:57.455Z,0.40
2019-03-02T07:58:27.227Z,0.40
2019-03-02T08:00:57.884Z,0.70
2019-03-02T08:03:28.461Z,0.63
2019-03-02T08:05:58.855Z,0.77
2019-03-02T08:08:29.533Z,0.70
2019-03-02T08:10:59.844Z,0.50
2019-03-02T08:13:32.760Z,0.70
2019-03-02T08:16:03.352Z,0.67
2019-03-02T08:18:33.672Z,1.50
2019-03-02T08:21:04.564Z,0.43
2019-03-02T08:23:35.193Z,0.43
2019-03-02T08:26:07.462Z,0.60
2019-03-02T08:28:42.068Z,0.40
2019-03-02T08:31:12.205Z,0.63
2019-03-02T08:33:45.812Z,0.60
2019-03-02T08:36:16.879Z,0.40
2019-03-02T08:38:47.084Z,0.50
2019-03-02T08:41:17.421Z,0.30
2019-03-02T08:43:47.761Z,0.70
2019-03-02T08:46:18.626Z,0.50
2019-03-02T08:48:49.377Z,0.73
2019-03-02T08:51:20.265Z,0.37
2019-03-02T08:53:50.975Z,0.50
2019-03-02T08:56:21.397Z,0.43
2019-03-02T08:58:51.889Z,0.90
2019-03-02T09:01:23.855Z,0.60
2019-03-02T09:03:54.387Z,0.70
2019-03-02T09:06:25.071Z,0.80
2019-03-02T09:08:55.736Z,0.40
2019-03-02T09:11:26.185Z,0.63
2019-03-02T09:13:57.053Z,0.40
2019-03-02T09:16:27.694Z,0.50
2019-03-02T09:18:58.403Z,0.50
2019-03-02T09:21:28.881Z,0.80
2019-03-02T09:23:59.545Z,0.67
2019-03-02T09:26:29.999Z,0.80
2019-03-02T09:29:00.656Z,0.50
2019-03-02T09:31:35.069Z,0.57
2019-03-02T09:34:05.099Z,0.47
2019-03-02T09:36:35.963Z,0.60
2019-03-02T09:39:07.247Z,0.40
2019-03-02T09:41:37.819Z,0.57
2019-03-02T09:44:08.550Z,0.40
2019-03-02T09:46:42.712Z,0.40
2019-03-02T09:49:13.193Z,0.43
2019-03-02T09:51:44.824Z,0.40
2019-03-02T09:54:15.752Z,0.50
2019-03-02T09:56:46.471Z,0.77
2019-03-02T09:59:19.164Z,0.30
2019-03-02T10:01:49.928Z,0.40
2019-03-02T10:04:20.852Z,0.40
2019-03-02T10:06:51.324Z,0.57
2019-03-02T10:09:24.965Z,0.43
2019-03-02T10:11:54.286Z,0.50
2019-03-02T10:14:26.559Z,0.40
2019-03-02T10:16:57.298Z,0.60
2019-03-02T10:19:28.875Z,0.33
2019-03-02T10:22:12.463Z,0.30
2019-03-02T10:24:42.902Z,0.40
2019-03-02T10:27:17.238Z,0.50
2019-03-02T10:29:48.192Z,0.63
2019-03-02T10:32:19.552Z,0.60
2019-03-02T10:34:50.394Z,0.40
2019-03-02T10:37:21.227Z,0.57
2019-03-02T10:39:51.809Z,0.40
2019-03-02T10:42:22.501Z,0.40
2019-03-02T10:44:53.658Z,0.40
2019-03-02T10:47:24.933Z,0.60
2019-03-02T10:49:55.721Z,0.40
2019-03-02T10:52:26.304Z,0.50
2019-03-02T10:54:56.696Z,0.50
2019-03-02T10:57:27.202Z,0.30
2019-03-02T10:59:57.766Z,0.40
2019-03-02T11:02:28.476Z,0.63
2019-03-02T11:05:00.805Z,0.67
2019-03-02T11:07:35.749Z,0.30
2019-03-02T11:10:20.695Z,0.30
2019-03-02T11:13:11.188Z,0.60
2019-03-02T11:15:44.665Z,0.50
2019-03-02T11:18:30.948Z,0.70
2019-03-02T11:21:18.294Z,0.70
2019-03-02T11:23:50.546Z,0.87
2019-03-02T11:26:25.377Z,0.53
2019-03-02T11:28:59.195Z,0.70
2019-03-02T11:31:41.838Z,0.80
2019-03-02T11:34:20.112Z,0.60
2019-03-02T11:37:07.482Z,0.97
2019-03-02T11:39:40.194Z,0.70
2019-03-02T11:42:21.587Z,0.73
2019-03-02T11:45:03.111Z,0.50
2019-03-02T11:47:44.772Z,0.47
2019-03-02T11:50:16.641Z,0.50
2019-03-02T11:52:50.483Z,0.50
2019-03-02T11:55:39.066Z,0.97
2019-03-02T11:58:11.385Z,0.50
2019-03-02T12:01:01.947Z,1.07
2019-03-02T12:03:46.515Z,1.10
2019-03-02T12:06:27.620Z,1.50
2019-03-02T12:09:07.720Z,0.50
2019-03-02T12:11:56.603Z,0.70
2019-03-02T12:14:32.034Z,0.50
2019-03-02T12:17:13.473Z,0.50
2019-03-02T12:19:45.829Z,0.80
2019-03-02T12:22:20.905Z,0.50
2019-03-02T12:25:03.560Z,0.60
2019-03-02T12:27:47.971Z,0.57
2019-03-02T12:30:22.237Z,0.50
2019-03-02T12:33:00.194Z,0.43
2019-03-02T12:35:49.869Z,0.40
2019-03-02T12:38:24.786Z,0.50
2019-03-02T12:40:59.954Z,0.50
2019-03-02T12:43:40.517Z,0.40
2019-03-02T12:46:17.735Z,0.50
2019-03-02T12:48:55.836Z,0.40
2019-03-02T12:51:35.185Z,0.40
2019-03-02T12:54:13.920Z,0.50
2019-03-02T12:56:46.570Z,0.60
2019-03-02T12:59:35.958Z,0.40
2019-03-02T13:02:14.012Z,0.43
2019-03-02T13:04:46.177Z,0.50
2019-03-02T13:07:35.220Z,0.90
2019-03-02T13:10:15.121Z,0.53
2019-03-02T13:12:52.667Z,0.50
2019-03-02T13:15:42.181Z,0.50
2019-03-02T13:18:18.471Z,0.60
2019-03-02T13:20:53.385Z,0.80
2019-03-02T13:23:25.648Z,0.40
2019-03-02T13:26:14.796Z,0.70
2019-03-02T13:29:00.845Z,0.60
2019-03-02T13:31:43.759Z,0.50
2019-03-02T13:34:32.045Z,0.40
2019-03-02T13:37:06.749Z,0.50
2019-03-02T13:39:42.013Z,0.57
2019-03-02T13:42:20.078Z,0.53
2019-03-02T13:44:55.383Z,0.90
2019-03-02T13:47:38.802Z,0.50
2019-03-02T13:50:15.287Z,0.40
2019-03-02T13:52:47.681Z,0.30
2019-03-02T13:55:28.734Z,0.40
2019-03-02T13:58:00.933Z,0.60
2019-03-02T14:00:51.548Z,1.17
2019-03-02T14:03:46.899Z,0.80
2019-03-02T14:06:19.855Z,1.20
2019-03-02T14:08:52.226Z,0.50
2019-03-02T14:11:40.897Z,0.40
2019-03-02T14:14:13.289Z,0.87
2019-03-02T14:16:57.670Z,0.50
2019-03-02T14:19:38.127Z,0.40
2019-03-02T14:22:27.986Z,0.53
2019-03-02T14:25:00.379Z,0.70
2019-03-02T14:27:41.440Z,0.53
2019-03-02T14:30:13.538Z,0.40
2019-03-02T14:32:48.399Z,0.90
2019-03-02T14:35:25.647Z,0.53
2019-03-02T14:37:58.088Z,0.50
2019-03-02T14:40:30.588Z,0.50
2019-03-02T14:43:11.892Z,0.53
2019-03-02T14:45:59.540Z,0.57
2019-03-02T14:48:34.995Z,0.70
2019-03-02T14:51:26.357Z,0.40
2019-03-02T14:54:17.295Z,0.50
2019-03-02T14:57:01.661Z,0.30
2019-03-02T14:59:43.142Z,0.50
2019-03-02T15:02:21.413Z,0.50
2019-03-02T15:04:58.433Z,0.60
2019-03-02T15:07:43.005Z,0.40
2019-03-02T15:10:18.919Z,0.50
2019-03-02T15:13:07.369Z,0.47
2019-03-02T15:15:39.490Z,0.60
2019-03-02T15:18:14.683Z,0.30
2019-03-02T15:20:52.997Z,0.40
2019-03-02T15:23:25.167Z,0.90
2019-03-02T15:25:57.665Z,0.50
2019-03-02T15:28:34.037Z,0.50
2019-03-02T15:31:09.767Z,0.50
2019-03-02T15:33:41.982Z,0.47
2019-03-02T15:36:16.969Z,0.50
2019-03-02T15:38:49.366Z,0.43
2019-03-02T15:41:24.828Z,0.30
2019-03-02T15:44:03.247Z,0.70
2019-03-02T15:46:51.773Z,0.53
2019-03-02T15:49:26.857Z,0.47
2019-03-02T15:51:59.344Z,0.60
2019-03-02T15:54:40.629Z,1.00
2019-03-02T15:57:12.981Z,0.80
2019-03-02T15:59:45.117Z,0.70
2019-03-02T16:02:26.139Z,0.70
2019-03-02T16:04:58.733Z,0.57
2019-03-02T16:07:35.066Z,0.40
2019-03-02T16:10:25.618Z,0.70
2019-03-02T16:13:13.170Z,0.70
2019-03-02T16:18:53.354Z,0.53
2019-03-02T16:21:33.532Z,0.70
2019-03-02T16:24:08.938Z,0.80
2019-03-02T16:26:57.842Z,0.50
2019-03-02T16:29:30.267Z,1.17
2019-03-02T16:32:02.615Z,0.90
2019-03-02T16:34:37.494Z,0.80
2019-03-02T16:37:13.038Z,0.70
2019-03-02T16:39:50.788Z,1.07
2019-03-02T16:42:32.093Z,0.87
2019-03-02T16:45:06.790Z,0.80
2019-03-02T16:47:51.749Z,1.00
2019-03-02T16:50:43.429Z,1.10
2019-03-02T16:53:32.477Z,0.80
2019-03-02T16:56:10.730Z,0.90
2019-03-02T16:58:49.281Z,1.00
2019-03-02T17:01:26.051Z,0.93
2019-03-02T17:03:58.307Z,0.87
2019-03-02T17:06:30.597Z,1.00
2019-03-02T17:09:19.141Z,0.83
2019-03-02T17:12:08.409Z,0.87
2019-03-02T17:14:58.010Z,1.20
2019-03-02T17:17:30.485Z,1.13
2019-03-02T17:20:06.049Z,1.00
2019-03-02T17:22:38.932Z,1.00
2019-03-02T17:25:13.605Z,1.00
2019-03-02T17:27:58.213Z,1.20
2019-03-02T17:30:31.568Z,1.23
2019-03-02T17:33:19.934Z,1.00
2019-03-02T17:36:08.388Z,1.33
2019-03-02T17:38:51.429Z,1.00
2019-03-02T17:41:39.745Z,1.70
2019-03-02T17:44:18.745Z,1.00
2019-03-02T17:47:09.864Z,1.30
2019-03-02T17:49:51.378Z,1.20
2019-03-02T17:52:29.444Z,1.50
2019-03-02T17:55:10.718Z,1.27
2019-03-02T17:57:59.285Z,1.40
2019-03-02T18:00:31.735Z,1.50
2019-03-02T18:03:07.058Z,1.57
2019-03-02T18:05:39.646Z,1.60
2019-03-02T18:08:12.238Z,1.63
2019-03-02T18:10:51.133Z,1.40
2019-03-02T18:13:35.468Z,1.63
2019-03-02T18:16:06.744Z,1.40
2019-03-02T18:18:37.273Z,1.10
2019-03-02T18:21:07.677Z,1.20
2019-03-02T18:23:37.881Z,1.40
2019-03-02T18:26:08.428Z,1.63
2019-03-02T18:28:39.112Z,1.47
2019-03-02T18:31:09.731Z,2.07
2019-03-02T18:33:47.367Z,1.50
2019-03-02T18:36:16.374Z,1.90
2019-03-02T18:38:48.884Z,1.30
2019-03-02T18:41:18.964Z,1.60
2019-03-02T18:43:49.489Z,1.87
2019-03-02T18:46:19.870Z,1.30
2019-03-02T18:48:58.204Z,2.00
2019-03-02T18:51:30.403Z,1.87
2019-03-02T18:54:11.905Z,2.23
2019-03-02T18:56:44.721Z,2.13
2019-03-02T18:59:15.106Z,1.93
2019-03-02T19:01:47.085Z,2.60
2019-03-02T19:04:19.634Z,2.37
2019-03-02T19:06:50.255Z,2.60
2019-03-02T19:09:20.643Z,2.37
2019-03-02T19:11:54.679Z,3.30
2019-03-02T19:14:23.533Z,2.60
2019-03-02T19:16:54.069Z,2.60
2019-03-02T19:19:24.426Z,3.20
2019-03-02T19:21:54.670Z,3.40
2019-03-02T19:24:25.010Z,2.53
2019-03-02T19:26:55.381Z,3.00
2019-03-02T19:29:25.925Z,2.83
2019-03-02T19:31:56.591Z,2.97
2019-03-02T19:34:26.866Z,2.80
2019-03-02T19:36:57.258Z,2.77
2019-03-02T19:39:27.730Z,3.33
2019-03-02T19:41:58.156Z,2.73
2019-03-02T19:44:28.567Z,2.90
2019-03-02T19:46:59.132Z,3.33
2019-03-02T19:49:29.441Z,3.27
2019-03-02T19:51:59.876Z,2.63
2019-03-02T19:54:30.397Z,2.90
2019-03-02T19:57:00.777Z,2.70
2019-03-02T19:59:31.080Z,3.23
2019-03-02T20:02:03.326Z,2.90
2019-03-02T20:04:33.667Z,2.80
2019-03-02T20:07:04.213Z,3.17
2019-03-02T20:09:34.615Z,2.63
2019-03-02T20:12:05.350Z,2.90
2019-03-02T20:14:35.915Z,3.27
2019-03-02T20:17:06.232Z,2.83
2019-03-02T20:19:36.628Z,2.83
2019-03-02T20:22:07.293Z,2.70
2019-03-02T20:24:37.585Z,3.00
2019-03-02T20:27:11.362Z,3.03
2019-03-02T20:29:41.669Z,2.93
2019-03-02T20:32:12.033Z,3.00
2019-03-02T20:34:44.158Z,3.13
2019-03-02T20:37:15.009Z,3.17
2019-03-02T20:39:45.353Z,2.70
2019-03-02T20:42:15.838Z,3.07
2019-03-02T20:44:46.195Z,3.37
2019-03-02T20:47:16.549Z,2.87
2019-03-02T20:49:47.040Z,3.00
2019-03-02T20:52:17.606Z,2.60
2019-03-02T20:54:48.835Z,2.87
2019-03-02T20:57:19.218Z,2.83
2019-03-02T20:59:49.603Z,2.77
2019-03-02T21:02:19.897Z,3.00
2019-03-02T21:04:50.302Z,3.40
2019-03-02T21:07:20.577Z,2.53
2019-03-02T21:09:50.874Z,2.90
2019-03-02T21:12:21.449Z,3.93
2019-03-02T21:14:51.961Z,3.33
2019-03-02T21:17:22.497Z,3.33
2019-03-02T21:19:52.790Z,6.80
2019-03-02T21:22:23.353Z,3.30
2019-03-02T21:24:53.944Z,3.13
2019-03-02T21:27:24.458Z,3.43
2019-03-02T21:29:58.061Z,3.40
2019-03-02T21:32:28.454Z,3.80
2019-03-02T21:34:59.106Z,3.50
2019-03-02T21:37:30.109Z,3.13
2019-03-02T21:40:00.644Z,3.37
2019-03-02T21:42:31.043Z,2.93
2019-03-02T21:45:01.411Z,3.13
2019-03-02T21:47:31.785Z,3.13
2019-03-02T21:50:02.425Z,3.40
2019-03-02T21:52:32.722Z,3.17
2019-03-02T21:55:03.633Z,2.80
2019-03-02T21:57:34.591Z,3.17
2019-03-02T22:00:07.954Z,3.53
2019-03-02T22:02:38.275Z,3.03
2019-03-02T22:05:09.208Z,3.70
2019-03-02T22:07:39.640Z,3.47
2019-03-02T22:10:22.465Z,2.93
2019-03-02T22:12:52.841Z,3.00
2019-03-02T22:15:23.302Z,3.07
2019-03-02T22:17:55.140Z,2.97
2019-03-02T22:20:27.347Z,2.80
2019-03-02T22:22:57.753Z,2.67
2019-03-02T22:25:28.133Z,3.27
2019-03-02T22:27:58.425Z,3.03
2019-03-02T22:30:29.129Z,2.90
2019-03-02T22:32:59.572Z,2.60
2019-03-02T22:35:29.953Z,3.03
2019-03-02T22:38:00.542Z,2.60
2019-03-02T22:40:30.973Z,3.23
2019-03-02T22:43:01.410Z,2.37
2019-03-02T22:45:33.561Z,2.30
2019-03-02T22:48:04.000Z,1.90
2019-03-02T22:50:35.461Z,2.37
2019-03-02T22:53:05.909Z,2.50
2019-03-02T22:55:36.384Z,2.80
2019-03-02T22:58:06.917Z,2.80
2019-03-02T23:00:46.521Z,2.60
2019-03-02T23:03:15.775Z,2.57
2019-03-02T23:05:46.316Z,2.37
2019-03-02T23:08:16.984Z,3.07
2019-03-02T23:10:47.721Z,2.93
2019-03-02T23:13:18.266Z,1.97
2019-03-02T23:15:48.951Z,2.13
2019-03-02T23:18:19.309Z,3.03
2019-03-02T23:20:49.721Z,2.30
2019-03-02T23:23:21.697Z,2.00
2019-03-02T23:25:51.990Z,2.37
2019-03-02T23:28:22.594Z,2.00
2019-03-02T23:30:53.010Z,2.00
2019-03-02T23:33:23.428Z,2.20
2019-03-02T23:35:53.847Z,2.13
2019-03-02T23:38:24.153Z,1.87
2019-03-02T23:40:54.593Z,1.93
2019-03-02T23:43:25.083Z,2.10
2019-03-02T23:45:55.475Z,2.43
2019-03-02T23:48:25.931Z,2.17
2019-03-02T23:50:56.279Z,1.87
2019-03-02T23:53:26.577Z,2.00
2019-03-02T23:55:57.133Z,1.43
2019-03-02T23:58:27.876Z,1.63
